Time;durP1;ratioP1;P1;durP2;ratioP2;P2;SDS_P1;SDS_P2;PMS_P1;PMS_P2;Temp;Humidity;BMP_temperature;BMP_pressure;BME280_temperature;BME280_humidity;BME280_pressure;Samples;Min_cycle;Max_cycle;Signal;HPM_P1;HPM_P2
2022/11/22 00:00:24;;;;;;;0.68;0.60;;;17.90;50.30;;;;;;5069217;28;20391;-80
2022/11/22 00:02:51;;;;;;;1.92;0.52;;;17.90;50.20;;;;;;5069522;28;20381;-81
2022/11/22 00:05:18;;;;;;;1.92;0.60;;;18.00;51.10;;;;;;5069215;28;20866;-80
2022/11/22 00:07:46;;;;;;;1.48;0.45;;;18.30;50.40;;;;;;5069616;28;20462;-80
2022/11/22 00:10:14;;;;;;;1.63;0.47;;;18.20;49.60;;;;;;5069504;28;20380;-81
2022/11/22 00:12:41;;;;;;;1.73;0.60;;;18.30;49.80;;;;;;5064415;28;20387;-80
2022/11/22 00:15:09;;;;;;;1.42;0.50;;;18.20;50.80;;;;;;5066477;28;20397;-80
2022/11/22 00:17:36;;;;;;;2.95;0.70;;;18.50;49.40;;;;;;5072869;28;20388;-80
2022/11/22 00:20:04;;;;;;;1.35;0.60;;;18.50;49.80;;;;;;5072978;28;20794;-80
2022/11/22 00:22:32;;;;;;;1.38;0.40;;;18.50;49.70;;;;;;5072977;28;20374;-81
2022/11/22 00:24:59;;;;;;;0.85;0.50;;;18.60;50.00;;;;;;5073402;28;20522;-81
2022/11/22 00:27:26;;;;;;;1.97;0.57;;;18.30;49.30;;;;;;5073245;28;20469;-81
2022/11/22 00:29:53;;;;;;;1.25;0.50;;;18.60;50.30;;;;;;5072956;28;20381;-80
2022/11/22 00:32:20;;;;;;;1.23;0.60;;;19.00;49.70;;;;;;5073030;28;20393;-80
2022/11/22 00:34:47;;;;;;;2.00;0.70;;;19.00;48.50;;;;;;5072728;28;20401;-81
2022/11/22 00:37:14;;;;;;;0.80;0.40;;;19.10;49.30;;;;;;5072786;28;20459;-82
2022/11/22 00:39:41;;;;;;;0.52;0.32;;;19.60;46.50;;;;;;5070382;28;20370;-81
2022/11/22 00:42:08;;;;;;;1.10;0.40;;;19.60;47.30;;;;;;5060993;28;20370;-80
2022/11/22 00:44:35;;;;;;;2.92;0.55;;;19.40;45.80;;;;;;5072423;28;20729;-81
2022/11/22 00:47:02;;;;;;;1.60;0.47;;;19.30;46.80;;;;;;5072593;28;20866;-81
2022/11/22 00:49:29;;;;;;;1.70;0.50;;;19.70;45.50;;;;;;5072557;28;20374;-81
2022/11/22 00:51:56;;;;;;;2.10;0.52;;;19.80;46.60;;;;;;5072297;28;20378;-81
2022/11/22 00:54:23;;;;;;;1.25;0.60;;;19.60;45.20;;;;;;5072099;28;20371;-81
2022/11/22 00:56:50;;;;;;;1.25;0.40;;;19.60;46.00;;;;;;5072071;28;20406;-81
2022/11/22 00:59:17;;;;;;;4.03;0.57;;;19.60;46.10;;;;;;5071977;28;20370;-81
2022/11/22 01:01:44;;;;;;;1.90;0.57;;;19.90;45.80;;;;;;5071807;28;20467;-81
2022/11/22 01:04:11;;;;;;;1.83;0.50;;;19.60;44.70;;;;;;5072158;28;20374;-81
2022/11/22 01:06:38;;;;;;;0.80;0.50;;;19.70;46.70;;;;;;5072082;28;20382;-80
2022/11/22 01:09:05;;;;;;;1.50;0.60;;;20.20;46.40;;;;;;5071894;28;20388;-81
2022/11/22 01:11:32;;;;;;;1.73;0.50;;;20.40;46.30;;;;;;5071965;28;20386;-80
2022/11/22 01:13:59;;;;;;;1.73;0.40;;;20.70;46.20;;;;;;5071578;28;20376;-82
2022/11/22 01:16:26;;;;;;;2.05;0.55;;;20.60;45.50;;;;;;5071739;28;20402;-81
2022/11/22 01:18:53;;;;;;;2.53;0.73;;;20.60;46.50;;;;;;5071637;28;20882;-80
2022/11/22 01:21:20;;;;;;;2.90;0.60;;;20.90;45.30;;;;;;5071603;28;20461;-81
2022/11/22 01:23:47;;;;;;;0.60;0.40;;;21.00;45.20;;;;;;5071039;28;20381;-80
2022/11/22 01:26:14;;;;;;;2.60;0.50;;;21.20;44.60;;;;;;5071293;28;20406;-80
2022/11/22 01:28:42;;;;;;;1.75;0.60;;;21.00;44.90;;;;;;5071624;28;20435;-81
2022/11/22 01:31:09;;;;;;;1.00;0.50;;;21.10;45.50;;;;;;5071348;28;20401;-81
2022/11/22 01:33:36;;;;;;;1.00;0.43;;;21.50;44.90;;;;;;5071481;28;20414;-81
2022/11/22 01:36:06;;;;;;;1.15;0.43;;;21.50;43.50;;;;;;5069364;28;21584;-81
2022/11/22 01:38:33;;;;;;;4.30;0.70;;;21.50;44.80;;;;;;5058366;28;20371;-81
2022/11/22 01:41:00;;;;;;;3.10;0.80;;;21.80;44.20;;;;;;5071190;28;20371;-81
2022/11/22 01:43:29;;;;;;;1.75;0.60;;;22.50;44.60;;;;;;5071097;28;20404;-81
2022/11/22 01:46:01;;;;;;;1.15;0.50;;;22.80;44.30;;;;;;5071093;28;20382;-81
2022/11/22 01:48:46;;;;;;;1.42;0.50;;;22.70;42.70;;;;;;5070848;28;20370;-81
2022/11/22 01:51:43;;;;;;;1.67;0.63;;;22.70;43.40;;;;;;5070982;28;20409;-81
2022/11/22 01:54:16;;;;;;;0.93;0.50;;;22.90;43.30;;;;;;5050042;28;20373;-81
2022/11/22 01:56:49;;;;;;;0.80;0.60;;;22.90;44.40;;;;;;5070906;28;20575;-81
2022/11/22 01:59:21;;;;;;;0.57;0.38;;;22.70;43.30;;;;;;5071016;28;20850;-81
2022/11/22 02:01:48;;;;;;;0.90;0.30;;;22.60;42.60;;;;;;5070776;28;20723;-81
2022/11/22 02:04:17;;;;;;;2.03;0.45;;;22.80;43.10;;;;;;5070786;28;20371;-81
2022/11/22 02:07:12;;;;;;;0.93;0.55;;;23.40;42.10;;;;;;5070456;28;20465;-80
2022/11/22 02:09:40;;;;;;;1.23;0.43;;;23.10;42.40;;;;;;5070659;28;20378;-82
2022/11/22 02:12:09;;;;;;;0.60;0.40;;;23.30;42.50;;;;;;5070674;28;20382;-81
2022/11/22 02:14:37;;;;;;;1.77;0.60;;;23.10;42.90;;;;;;5070369;28;20420;-80
2022/11/22 02:17:04;;;;;;;3.10;0.50;;;23.00;43.10;;;;;;5070286;28;20864;-82
2022/11/22 02:19:48;;;;;;;1.20;0.50;;;23.20;44.00;;;;;;5070520;28;20423;-80
2022/11/22 02:22:27;;;;;;;0.90;0.40;;;23.40;42.30;;;;;;5070160;28;20402;-81
2022/11/22 02:24:59;;;;;;;1.30;0.40;;;23.80;42.50;;;;;;5043409;28;20393;-81
2022/11/22 02:27:26;;;;;;;1.20;0.50;;;23.80;41.90;;;;;;5070232;28;20382;-81
2022/11/22 02:29:53;;;;;;;0.75;0.50;;;23.90;42.10;;;;;;5056065;28;20370;-81
2022/11/22 02:32:20;;;;;;;2.67;0.65;;;24.50;42.60;;;;;;5070205;28;20469;-81
2022/11/22 02:34:50;;;;;;;3.05;0.70;;;25.20;40.30;;;;;;5069236;28;20395;-82
2022/11/22 02:37:26;;;;;;;1.30;0.40;;;25.30;40.90;;;;;;5059886;28;20388;-82
2022/11/22 02:40:03;;;;;;;1.08;0.50;;;25.20;42.40;;;;;;5068060;28;20457;-81
2022/11/22 02:42:30;;;;;;;1.80;0.50;;;25.10;41.80;;;;;;5070317;28;20461;-82
2022/11/22 02:44:57;;;;;;;0.80;0.40;;;25.50;41.40;;;;;;5070100;28;20377;-82
2022/11/22 02:47:24;;;;;;;1.08;0.50;;;25.10;40.10;;;;;;5070154;28;20734;-81
2022/11/22 02:49:53;;;;;;;1.70;0.40;;;25.10;40.90;;;;;;5070024;28;20366;-82
2022/11/22 02:52:20;;;;;;;1.08;0.50;;;25.00;42.40;;;;;;5070404;28;20444;-81
2022/11/22 02:54:47;;;;;;;0.77;0.40;;;25.20;41.30;;;;;;5055698;28;20736;-83
2022/11/22 02:57:14;;;;;;;1.33;0.50;;;25.60;39.70;;;;;;5063243;28;20887;-82
2022/11/22 02:59:41;;;;;;;1.77;0.50;;;24.60;40.40;;;;;;5062956;28;20858;-81
2022/11/22 03:02:08;;;;;;;1.80;0.60;;;24.30;41.50;;;;;;5069914;28;20477;-82
2022/11/22 03:04:35;;;;;;;2.83;0.50;;;24.50;40.70;;;;;;5069961;28;20742;-81
2022/11/22 03:07:03;;;;;;;2.25;0.47;;;24.70;41.10;;;;;;5066730;28;20380;-82
2022/11/22 03:09:31;;;;;;;0.80;0.50;;;24.70;41.10;;;;;;5059735;28;20460;-81
2022/11/22 03:11:58;;;;;;;2.08;0.60;;;24.70;42.10;;;;;;5069728;28;20405;-82
2022/11/22 03:14:25;;;;;;;1.67;0.40;;;25.10;41.50;;;;;;5069823;28;20370;-82
2022/11/22 03:16:52;;;;;;;1.45;0.50;;;25.60;39.60;;;;;;5069613;28;20390;-81
2022/11/22 03:19:19;;;;;;;2.70;0.60;;;25.60;40.60;;;;;;5069994;28;20457;-82
2022/11/22 03:21:47;;;;;;;0.80;0.38;;;25.40;41.10;;;;;;5069812;28;20769;-81
2022/11/22 03:24:14;;;;;;;1.73;0.50;;;25.80;40.40;;;;;;5069743;28;20413;-82
2022/11/22 03:26:41;;;;;;;1.70;0.50;;;25.80;39.50;;;;;;5069802;28;20398;-82
2022/11/22 03:29:07;;;;;;;0.68;0.40;;;25.70;40.70;;;;;;5069771;28;20386;-80
2022/11/22 03:31:35;;;;;;;1.10;0.50;;;25.40;40.50;;;;;;5069495;28;20378;-81
2022/11/22 03:34:02;;;;;;;1.13;0.50;;;24.80;40.50;;;;;;5069587;28;20449;-81
2022/11/22 03:36:29;;;;;;;1.10;0.50;;;24.80;41.90;;;;;;5069692;28;20437;-81
2022/11/22 03:38:56;;;;;;;0.80;0.40;;;25.20;42.10;;;;;;5069649;28;20378;-81
2022/11/22 03:41:22;;;;;;;0.40;0.40;;;25.80;41.20;;;;;;5067453;28;20449;-81
2022/11/22 03:43:49;;;;;;;0.85;0.50;;;25.40;40.40;;;;;;5058043;28;20367;-82
2022/11/22 03:46:20;;;;;;;1.60;0.50;;;25.20;40.50;;;;;;5038346;28;20422;-82
2022/11/22 03:48:47;;;;;;;1.27;0.50;;;25.70;40.50;;;;;;5073320;28;20374;-81
2022/11/22 03:51:14;;;;;;;1.27;0.57;;;26.30;40.10;;;;;;5073255;28;20378;-82
2022/11/22 03:53:41;;;;;;;2.30;0.52;;;26.70;40.90;;;;;;5053479;28;20371;-82
2022/11/22 03:56:08;;;;;;;0.82;0.50;;;26.30;39.90;;;;;;5043585;28;20906;-82
2022/11/22 03:58:35;;;;;;;1.63;0.50;;;25.60;40.40;;;;;;5053059;28;20382;-83
2022/11/22 04:01:03;;;;;;;0.73;0.50;;;24.80;41.60;;;;;;5053217;28;20419;-82
2022/11/22 04:03:30;;;;;;;1.33;0.47;;;25.40;41.40;;;;;;5038763;28;20421;-84
2022/11/22 04:05:57;;;;;;;2.22;0.50;;;25.50;40.70;;;;;;5053090;28;20747;-82
2022/11/22 04:08:24;;;;;;;0.93;0.40;;;25.30;40.70;;;;;;5052886;28;20380;-83
2022/11/22 04:10:52;;;;;;;1.55;0.40;;;25.10;42.00;;;;;;5046485;28;20435;-82
2022/11/22 04:13:19;;;;;;;3.58;0.60;;;25.20;42.20;;;;;;5046037;28;20732;-82
2022/11/22 04:15:46;;;;;;;0.88;0.40;;;25.90;40.80;;;;;;5052659;28;20911;-82
2022/11/22 04:18:14;;;;;;;0.93;0.50;;;25.90;40.00;;;;;;5052959;28;20441;-83
2022/11/22 04:23:27;;;;;;;0.90;0.50;;;25.30;40.10;;;;;;5052775;28;20451;-82
2022/11/22 04:25:55;;;;;;;1.50;0.50;;;24.70;41.80;;;;;;5052483;28;20934;-83
2022/11/22 04:28:24;;;;;;;1.40;0.57;;;25.10;41.20;;;;;;5052774;28;20467;-85
2022/11/22 04:33:37;;;;;;;1.55;0.50;;;25.70;41.50;;;;;;5052456;28;20371;-84
2022/11/22 04:36:04;;;;;;;1.25;0.50;;;25.80;40.60;;;;;;5052205;28;20887;-83
2022/11/22 04:38:33;;;;;;;1.08;0.40;;;25.80;40.90;;;;;;5052610;28;20376;-83
2022/11/22 04:41:01;;;;;;;1.20;0.50;;;25.40;40.80;;;;;;5052890;28;20475;-84
2022/11/22 04:46:15;;;;;;;1.23;0.40;;;25.70;41.50;;;;;;5052506;28;20374;-83
2022/11/22 04:48:42;;;;;;;0.57;0.40;;;26.10;42.20;;;;;;5052436;28;20379;-84
2022/11/22 04:53:58;;;;;;;1.30;0.47;;;26.00;41.20;;;;;;5052449;28;20360;-84
2022/11/22 04:56:25;;;;;;;1.35;0.50;;;25.90;42.20;;;;;;5060334;28;20449;-83
2022/11/22 04:58:53;;;;;;;1.10;0.50;;;25.80;41.70;;;;;;5057278;28;20711;-84
2022/11/22 05:01:20;;;;;;;0.82;0.50;;;26.00;41.40;;;;;;5072187;28;20469;-83
2022/11/22 05:03:47;;;;;;;2.78;0.50;;;26.20;41.20;;;;;;5072054;28;20366;-82
2022/11/22 05:06:14;;;;;;;2.00;0.60;;;26.10;41.80;;;;;;5071948;28;20389;-82
2022/11/22 05:08:41;;;;;;;1.05;0.60;;;26.20;41.10;;;;;;5068681;28;20378;-82
2022/11/22 05:11:08;;;;;;;1.25;0.50;;;25.80;41.80;;;;;;5060986;28;20378;-82
2022/11/22 05:13:38;;;;;;;1.03;0.50;;;25.80;41.50;;;;;;5071812;28;20794;-83
2022/11/22 05:16:07;;;;;;;2.20;0.60;;;26.20;41.70;;;;;;5071613;28;20417;-82
2022/11/22 05:18:34;;;;;;;1.17;0.40;;;26.60;40.90;;;;;;5071704;28;20412;-82
2022/11/22 05:21:12;;;;;;;1.13;0.47;;;26.80;41.10;;;;;;5071715;28;20857;-82
2022/11/22 05:23:55;;;;;;;1.65;0.70;;;26.10;40.40;;;;;;5071861;28;20374;-82
2022/11/22 05:26:26;;;;;;;0.95;0.50;;;26.00;41.30;;;;;;5057937;28;20381;-83
2022/11/22 05:28:53;;;;;;;1.37;0.67;;;25.60;41.70;;;;;;5071820;28;20371;-82
2022/11/22 05:31:26;;;;;;;1.33;0.47;;;25.90;41.90;;;;;;5071554;28;20374;-83
2022/11/22 05:33:54;;;;;;;1.33;0.60;;;25.20;41.70;;;;;;5061109;28;20380;-84
2022/11/22 05:36:22;;;;;;;3.90;0.60;;;24.80;42.70;;;;;;5068129;28;20452;-82
2022/11/22 05:38:50;;;;;;;1.38;0.50;;;24.60;43.00;;;;;;5071516;28;20413;-83
2022/11/22 05:41:17;;;;;;;1.60;0.60;;;24.40;43.00;;;;;;5070016;28;20730;-83
2022/11/22 05:43:44;;;;;;;1.80;0.50;;;23.90;43.50;;;;;;5058758;28;20436;-83
2022/11/22 05:46:13;;;;;;;1.20;0.52;;;24.30;43.80;;;;;;5071184;28;20435;-83
2022/11/22 05:48:44;;;;;;;1.17;0.57;;;24.50;43.30;;;;;;5071215;28;20388;-84
2022/11/22 05:51:16;;;;;;;1.15;0.60;;;24.30;42.80;;;;;;5071191;28;20419;-82
2022/11/22 05:53:44;;;;;;;1.50;0.47;;;24.50;43.90;;;;;;5057184;28;20420;-85
2022/11/22 05:56:14;;;;;;;2.50;0.70;;;25.30;43.60;;;;;;5063250;28;20520;-86
2022/11/22 05:58:41;;;;;;;1.85;0.60;;;25.80;43.20;;;;;;5066515;28;20502;-82
2022/11/22 06:01:13;;;;;;;1.33;0.63;;;26.30;41.50;;;;;;5050605;28;20384;-83
2022/11/22 06:03:41;;;;;;;1.60;0.55;;;26.20;42.10;;;;;;5059242;28;20466;-83
2022/11/22 06:06:08;;;;;;;1.45;0.50;;;25.50;41.90;;;;;;5070962;28;20374;-84
2022/11/22 06:08:39;;;;;;;1.10;0.50;;;24.60;42.50;;;;;;5070676;28;20440;-83
2022/11/22 06:11:30;;;;;;;1.55;0.47;;;24.00;44.30;;;;;;5061249;28;20393;-82
2022/11/22 06:14:01;;;;;;;2.33;0.65;;;23.50;44.50;;;;;;5068594;28;20393;-83
2022/11/22 06:16:28;;;;;;;1.80;0.60;;;23.00;45.30;;;;;;5068752;28;20441;-83
2022/11/22 06:18:56;;;;;;;2.90;0.70;;;22.70;46.30;;;;;;5067557;28;20376;-83
2022/11/22 06:21:25;;;;;;;4.00;0.82;;;22.40;46.70;;;;;;5060265;28;20421;-81
2022/11/22 06:23:54;;;;;;;3.10;0.60;;;22.30;46.70;;;;;;5066392;28;20390;-84
2022/11/22 06:26:23;;;;;;;2.00;0.60;;;23.00;45.90;;;;;;5070425;28;20473;-83
2022/11/22 06:28:50;;;;;;;1.10;0.60;;;24.00;45.20;;;;;;5070536;28;20435;-83
2022/11/22 06:31:20;;;;;;;1.60;0.60;;;24.70;44.10;;;;;;5054233;28;20374;-82
2022/11/22 06:33:47;;;;;;;1.40;0.55;;;25.20;43.60;;;;;;5070546;28;20730;-84
2022/11/22 06:36:29;;;;;;;1.42;0.60;;;25.20;43.00;;;;;;5068343;28;20409;-83
2022/11/22 06:38:56;;;;;;;1.42;0.52;;;25.10;42.70;;;;;;5060466;28;20745;-85
2022/11/22 06:41:31;;;;;;;1.08;0.60;;;23.90;44.20;;;;;;5069261;28;20400;-84
2022/11/22 06:43:58;;;;;;;1.45;0.60;;;23.10;46.00;;;;;;5061939;28;20394;-80
2022/11/22 06:46:26;;;;;;;2.22;0.60;;;22.60;46.50;;;;;;5047988;28;20383;-82
2022/11/22 06:48:53;;;;;;;3.17;1.00;;;22.90;46.70;;;;;;5070403;28;20451;-81
2022/11/22 06:51:23;;;;;;;4.13;1.10;;;23.60;45.70;;;;;;5069974;28;20882;-81
2022/11/22 06:53:51;;;;;;;1.70;0.60;;;24.30;45.00;;;;;;5064101;28;20405;-81
2022/11/22 06:56:30;;;;;;;1.00;0.60;;;24.00;44.00;;;;;;5051826;28;20407;-81
2022/11/22 06:58:57;;;;;;;1.15;0.50;;;22.50;46.80;;;;;;5053922;28;20388;-83
2022/11/22 07:01:28;;;;;;;1.80;0.65;;;22.00;47.90;;;;;;5063293;28;20857;-84
2022/11/22 07:03:57;;;;;;;8.18;2.08;;;21.80;48.50;;;;;;5059169;28;20391;-85
2022/11/22 07:06:26;;;;;;;3.28;0.80;;;21.70;48.80;;;;;;5050156;28;20384;-80
2022/11/22 07:08:54;;;;;;;4.40;1.20;;;21.80;48.50;;;;;;5065019;28;20386;-82
2022/11/22 07:11:23;;;;;;;9.32;2.40;;;21.50;48.80;;;;;;5054512;28;20420;-80
2022/11/22 07:13:51;;;;;;;3.50;1.20;;;21.30;49.30;;;;;;5039237;28;20389;-84
2022/11/22 07:16:20;;;;;;;3.53;1.15;;;21.40;49.90;;;;;;5065190;28;20412;-83
2022/11/22 07:18:48;;;;;;;3.30;0.80;;;21.60;49.60;;;;;;5066036;28;20762;-83
2022/11/22 07:21:18;;;;;;;0.77;0.70;;;22.00;48.70;;;;;;5070947;28;20795;-84
2022/11/22 07:23:47;;;;;;;3.03;0.70;;;22.30;48.20;;;;;;5063756;28;20426;-82
2022/11/22 07:26:16;;;;;;;3.05;0.90;;;22.80;47.30;;;;;;5074064;28;20386;-88
2022/11/22 07:28:43;;;;;;;3.72;0.70;;;23.10;47.20;;;;;;5060881;28;20375;-83
2022/11/22 07:31:13;;;;;;;1.80;0.70;;;22.70;47.30;;;;;;5061415;28;20391;-83
2022/11/22 07:33:40;;;;;;;2.92;0.70;;;22.10;48.70;;;;;;5056525;28;20752;-83
2022/11/22 07:36:21;;;;;;;1.60;0.70;;;21.70;49.30;;;;;;5058726;28;20902;-83
2022/11/22 07:38:48;;;;;;;2.38;0.80;;;21.50;49.60;;;;;;5061480;28;20377;-83
2022/11/22 07:41:16;;;;;;;2.00;1.05;;;21.80;49.40;;;;;;5065364;28;20391;-83
2022/11/22 07:43:44;;;;;;;2.67;0.80;;;22.00;49.00;;;;;;5066369;28;20473;-84
2022/11/22 07:46:30;;;;;;;1.80;0.77;;;22.10;48.60;;;;;;5053033;28;20395;-83
2022/11/22 07:48:58;;;;;;;1.80;0.60;;;22.30;48.70;;;;;;5060764;28;20452;-84
2022/11/22 07:51:26;;;;;;;2.47;0.80;;;22.20;48.50;;;;;;5058949;28;20395;-82
2022/11/22 07:53:55;;;;;;;2.72;0.70;;;21.70;48.90;;;;;;5065001;28;20374;-82
2022/11/22 07:56:22;;;;;;;2.33;0.63;;;21.10;49.90;;;;;;5073110;28;20408;-87
2022/11/22 07:58:49;;;;;;;1.63;0.80;;;21.00;50.50;;;;;;5060945;28;20378;-83
2022/11/22 08:01:18;;;;;;;1.92;0.80;;;20.80;50.90;;;;;;5053315;28;20384;-82
2022/11/22 08:03:45;;;;;;;1.50;0.70;;;20.50;51.80;;;;;;5066741;28;20370;-83
2022/11/22 08:06:13;;;;;;;3.07;0.90;;;20.40;52.20;;;;;;5044210;28;20775;-83
2022/11/22 08:08:40;;;;;;;2.13;0.60;;;20.10;52.00;;;;;;5061205;28;20481;-83
2022/11/22 08:11:09;;;;;;;1.40;0.50;;;19.90;52.30;;;;;;5061786;28;20394;-83
2022/11/22 08:13:36;;;;;;;1.85;0.80;;;19.80;52.80;;;;;;5072831;28;20431;-81
2022/11/22 08:16:10;;;;;;;2.05;0.70;;;19.80;53.10;;;;;;5072726;28;20397;-84
2022/11/22 08:18:38;;;;;;;1.58;0.70;;;19.70;52.70;;;;;;5059138;28;20945;-80
2022/11/22 08:21:08;;;;;;;1.95;0.80;;;19.70;53.10;;;;;;5057205;28;20390;-81
2022/11/22 08:23:36;;;;;;;2.08;0.80;;;19.70;53.30;;;;;;5053391;28;20388;-81
2022/11/22 08:26:04;;;;;;;3.10;0.70;;;19.70;53.40;;;;;;5053806;28;20391;-85
2022/11/22 08:28:31;;;;;;;2.70;0.80;;;19.60;53.40;;;;;;5056214;28;20387;-86
2022/11/22 08:31:00;;;;;;;2.38;0.70;;;19.50;53.90;;;;;;5066408;28;20393;-83
2022/11/22 08:33:27;;;;;;;4.27;0.73;;;19.40;54.10;;;;;;5070345;28;20745;-83
2022/11/22 08:35:54;;;;;;;3.03;0.90;;;19.30;54.60;;;;;;5055530;28;20442;-83
2022/11/22 08:38:21;;;;;;;2.13;0.90;;;19.10;54.60;;;;;;5056982;28;20395;-82
2022/11/22 08:40:49;;;;;;;2.50;0.73;;;19.10;55.10;;;;;;5052440;28;20893;-83
2022/11/22 08:43:17;;;;;;;2.13;0.73;;;18.90;55.20;;;;;;5070015;28;20379;-83
2022/11/22 08:45:44;;;;;;;1.30;0.80;;;18.80;55.30;;;;;;5054372;28;20902;-83
2022/11/22 08:48:11;;;;;;;3.40;0.93;;;18.70;55.70;;;;;;5060953;28;20383;-83
2022/11/22 08:50:38;;;;;;;4.35;1.30;;;18.70;55.90;;;;;;5064042;28;20456;-82
2022/11/22 08:53:05;;;;;;;1.75;1.13;;;18.60;56.10;;;;;;5066360;28;20389;-81
2022/11/22 08:55:32;;;;;;;3.13;0.90;;;18.50;56.40;;;;;;5070604;28;20402;-82
2022/11/22 08:58:00;;;;;;;1.80;0.90;;;18.40;56.70;;;;;;5060413;28;20391;-82
2022/11/22 09:00:27;;;;;;;2.40;0.80;;;18.40;56.70;;;;;;5069300;28;20893;-82
2022/11/22 09:02:54;;;;;;;1.73;0.93;;;18.40;56.80;;;;;;5059558;28;20395;-81
2022/11/22 09:05:21;;;;;;;1.83;0.73;;;18.30;56.80;;;;;;5068840;28;20374;-82
2022/11/22 09:07:48;;;;;;;2.53;0.75;;;18.20;56.80;;;;;;5072226;28;20370;-82
2022/11/22 09:10:15;;;;;;;2.10;0.98;;;18.20;56.90;;;;;;5070590;28;21039;-82
2022/11/22 09:12:45;;;;;;;2.45;0.80;;;18.20;56.80;;;;;;5066029;28;20380;-82
2022/11/22 09:15:14;;;;;;;2.20;0.80;;;18.10;57.20;;;;;;5060134;28;20412;-82
2022/11/22 09:17:42;;;;;;;2.03;0.80;;;18.10;57.20;;;;;;5053883;28;20395;-81
2022/11/22 09:20:10;;;;;;;3.90;0.90;;;18.10;57.20;;;;;;5051851;28;20387;-81
2022/11/22 09:22:38;;;;;;;1.77;0.70;;;18.00;57.30;;;;;;5065359;28;20465;-81
2022/11/22 09:25:06;;;;;;;1.25;0.65;;;18.00;57.30;;;;;;5055456;28;20875;-79
2022/11/22 09:27:33;;;;;;;2.90;0.75;;;18.00;57.20;;;;;;5063201;28;20397;-81
2022/11/22 09:30:01;;;;;;;2.28;0.80;;;17.90;58.00;;;;;;5071786;28;20377;-81
2022/11/22 09:32:28;;;;;;;2.17;0.70;;;17.90;57.80;;;;;;5071646;28;20385;-81
2022/11/22 09:34:55;;;;;;;1.83;0.80;;;17.80;57.60;;;;;;5070897;28;20382;-81
2022/11/22 09:37:22;;;;;;;2.05;0.73;;;17.80;57.80;;;;;;5071232;28;20816;-81
2022/11/22 09:39:49;;;;;;;3.03;0.77;;;17.80;58.10;;;;;;5056854;28;20377;-81
2022/11/22 09:42:32;;;;;;;2.72;0.80;;;17.70;58.10;;;;;;5071907;28;20390;-81
2022/11/22 09:45:33;;;;;;;1.58;0.60;;;17.70;58.00;;;;;;5066462;28;20376;-81
2022/11/22 09:48:21;;;;;;;2.70;0.93;;;17.60;58.10;;;;;;5045490;28;20391;-81
2022/11/22 09:51:09;;;;;;;2.97;0.90;;;17.60;58.30;;;;;;5061584;28;20378;-83
2022/11/22 09:54:04;;;;;;;1.63;0.70;;;17.60;58.80;;;;;;5068801;28;20370;-81
2022/11/22 09:56:33;;;;;;;2.65;0.80;;;17.50;58.90;;;;;;4989362;28;20428;-81
2022/11/22 09:59:06;;;;;;;2.30;0.80;;;17.40;59.40;;;;;;4989612;28;20427;-82
2022/11/22 10:01:37;;;;;;;2.70;0.93;;;17.30;59.70;;;;;;4989852;28;20507;-82
2022/11/22 10:04:04;;;;;;;2.63;1.00;;;17.20;60.00;;;;;;4989809;28;20842;-84
2022/11/22 10:06:42;;;;;;;2.28;1.00;;;17.20;60.70;;;;;;4988440;28;20495;-83
2022/11/22 10:09:33;;;;;;;2.85;0.98;;;17.10;60.70;;;;;;4988224;28;20730;-80
2022/11/22 10:12:19;;;;;;;2.10;0.80;;;17.00;60.50;;;;;;4989435;28;20879;-82
2022/11/22 10:14:52;;;;;;;2.53;0.90;;;16.90;60.70;;;;;;4989152;28;20447;-82
2022/11/22 10:17:51;;;;;;;2.63;0.90;;;16.90;61.30;;;;;;4977404;28;20795;-82
2022/11/22 10:20:24;;;;;;;2.55;0.90;;;16.90;61.40;;;;;;4989285;28;20389;-81
2022/11/22 10:22:51;;;;;;;3.20;1.00;;;16.80;61.70;;;;;;4989160;28;20388;-82
2022/11/22 10:25:21;;;;;;;3.80;1.40;;;16.70;61.70;;;;;;4988824;28;20910;-81
2022/11/22 10:27:53;;;;;;;2.13;1.20;;;16.60;62.70;;;;;;4989129;28;20408;-81
2022/11/22 10:30:21;;;;;;;2.75;1.20;;;16.60;62.70;;;;;;4990909;28;20612;-81
2022/11/22 10:32:57;;;;;;;3.70;1.30;;;16.50;63.10;;;;;;5005644;28;20397;-82
2022/11/22 10:35:38;;;;;;;2.08;1.35;;;16.40;63.10;;;;;;5063589;28;20504;-81
2022/11/22 10:38:27;;;;;;;3.25;1.50;;;16.40;63.10;;;;;;5070604;28;20894;-81
2022/11/22 10:41:27;;;;;;;3.67;1.40;;;16.40;63.60;;;;;;5063826;28;20382;-82
2022/11/22 10:44:30;;;;;;;3.17;1.17;;;16.30;63.30;;;;;;5048104;28;20367;-82
2022/11/22 10:47:12;;;;;;;3.38;1.08;;;16.30;63.40;;;;;;5067754;28;20394;-80
2022/11/22 10:49:51;;;;;;;2.20;1.10;;;16.30;63.60;;;;;;5067391;28;20386;-80
2022/11/22 10:52:55;;;;;;;4.10;1.10;;;16.20;64.40;;;;;;5075403;28;20426;-79
2022/11/22 10:55:50;;;;;;;1.75;1.05;;;16.20;64.10;;;;;;5069855;28;20394;-84
2022/11/22 10:58:46;;;;;;;6.38;1.17;;;16.10;64.70;;;;;;5087483;28;20366;-80
2022/11/22 11:01:36;;;;;;;2.28;0.98;;;16.10;64.90;;;;;;5078524;28;20374;-81
2022/11/22 11:04:05;;;;;;;2.97;1.08;;;16.00;65.10;;;;;;5038997;28;20423;-81
2022/11/22 11:07:01;;;;;;;2.83;0.90;;;16.00;65.40;;;;;;5065841;28;20462;-82
2022/11/22 11:09:40;;;;;;;2.00;0.90;;;15.90;65.50;;;;;;5059992;28;20387;-81
2022/11/22 11:12:15;;;;;;;1.55;0.90;;;15.90;65.50;;;;;;5064083;28;20733;-80
2022/11/22 11:15:05;;;;;;;3.60;1.08;;;16.00;64.70;;;;;;5059367;28;20906;-81
2022/11/22 11:17:37;;;;;;;2.35;0.90;;;16.40;63.90;;;;;;5028241;28;20390;-80
2022/11/22 11:20:18;;;;;;;4.05;1.10;;;16.30;64.00;;;;;;5070837;28;20366;-81
2022/11/22 11:22:45;;;;;;;3.55;1.17;;;16.30;64.10;;;;;;5063965;28;20421;-82
2022/11/22 11:25:45;;;;;;;3.20;0.90;;;16.10;65.10;;;;;;5065752;28;20382;-81
2022/11/22 11:28:25;;;;;;;4.28;1.00;;;16.00;64.70;;;;;;4957227;28;20394;-82
2022/11/22 11:31:06;;;;;;;2.30;1.05;;;15.90;65.10;;;;;;4953025;28;20467;-82
2022/11/22 11:33:36;;;;;;;4.18;0.90;;;15.80;65.70;;;;;;4962118;28;20386;-82
2022/11/22 11:36:20;;;;;;;4.82;0.93;;;15.70;66.00;;;;;;4968869;28;20420;-82
2022/11/22 11:38:52;;;;;;;3.28;0.90;;;15.80;66.20;;;;;;4964962;28;20408;-81
2022/11/22 11:41:21;;;;;;;3.20;0.80;;;15.70;66.10;;;;;;4956746;28;20416;-82
2022/11/22 11:43:48;;;;;;;2.05;0.88;;;15.70;66.00;;;;;;4966422;28;20398;-81
2022/11/22 11:46:29;;;;;;;1.10;0.80;;;15.80;65.90;;;;;;4958887;28;20394;-81
2022/11/22 11:49:17;;;;;;;2.55;0.90;;;15.90;65.40;;;;;;4949726;28;20388;-81
2022/11/22 11:51:54;;;;;;;3.35;0.90;;;15.90;65.70;;;;;;4958937;28;20882;-80
2022/11/22 11:54:22;;;;;;;2.25;0.80;;;15.80;65.80;;;;;;4953024;28;20408;-82
2022/11/22 11:56:55;;;;;;;2.88;1.00;;;15.80;66.10;;;;;;4972598;28;20885;-82
2022/11/22 11:59:27;;;;;;;2.53;0.80;;;15.70;66.10;;;;;;4968353;28;20390;-81
2022/11/22 12:02:17;;;;;;;4.30;0.80;;;15.60;66.60;;;;;;4968637;28;20889;-83
2022/11/22 12:05:17;;;;;;;3.53;0.90;;;15.50;66.90;;;;;;5049111;28;20469;-83
2022/11/22 12:07:48;;;;;;;1.75;0.73;;;15.40;67.80;;;;;;5059195;28;20845;-81
2022/11/22 12:10:32;;;;;;;2.90;0.80;;;15.50;67.40;;;;;;5066793;28;20383;-82
2022/11/22 12:13:13;;;;;;;1.92;1.00;;;15.50;67.30;;;;;;5056471;28;20413;-82
2022/11/22 12:15:51;;;;;;;1.60;0.80;;;15.40;67.00;;;;;;5065762;28;20407;-81
2022/11/22 12:18:39;;;;;;;2.03;0.83;;;15.50;67.00;;;;;;5072962;28;20457;-81
2022/11/22 12:21:19;;;;;;;1.92;0.90;;;15.50;67.30;;;;;;5044130;28;20383;-81
2022/11/22 12:23:54;;;;;;;4.35;0.90;;;15.40;67.50;;;;;;5052927;28;20382;-82
2022/11/22 12:26:21;;;;;;;2.30;0.90;;;15.40;67.70;;;;;;5057637;28;20442;-81
2022/11/22 12:28:49;;;;;;;3.13;0.90;;;15.30;68.20;;;;;;5072529;28;20381;-81
2022/11/22 12:31:19;;;;;;;2.22;0.90;;;15.30;68.60;;;;;;5058439;28;20473;-81
2022/11/22 12:33:53;;;;;;;2.90;0.90;;;15.20;68.60;;;;;;5070741;28;20420;-81
2022/11/22 12:36:43;;;;;;;2.63;0.90;;;15.10;69.00;;;;;;5060478;28;20410;-81
2022/11/22 12:39:18;;;;;;;4.15;0.90;;;15.00;69.30;;;;;;5062616;28;20528;-81
2022/11/22 12:41:49;;;;;;;4.03;0.82;;;15.00;69.80;;;;;;5067231;28;20390;-81
2022/11/22 12:44:19;;;;;;;2.97;1.00;;;14.80;70.30;;;;;;5051137;28;20481;-82
2022/11/22 12:46:52;;;;;;;2.50;0.93;;;14.80;70.80;;;;;;5050910;28;20740;-81
2022/11/22 12:49:37;;;;;;;3.03;0.93;;;14.80;71.30;;;;;;5052574;28;20914;-81
2022/11/22 12:52:39;;;;;;;2.13;0.90;;;14.80;70.90;;;;;;5050657;28;20388;-83
2022/11/22 12:55:21;;;;;;;1.85;0.90;;;14.70;70.80;;;;;;5026970;28;20768;-80
2022/11/22 12:58:08;;;;;;;2.45;1.17;;;14.70;71.30;;;;;;5049824;28;20400;-81
2022/11/22 13:00:41;;;;;;;2.33;0.73;;;14.70;71.40;;;;;;5039652;28;20382;-81
2022/11/22 13:03:17;;;;;;;3.00;0.93;;;14.70;71.70;;;;;;5064994;28;20470;-81
2022/11/22 13:05:48;;;;;;;2.42;0.70;;;14.60;71.50;;;;;;5065846;28;20449;-80
2022/11/22 13:08:18;;;;;;;1.92;0.80;;;14.50;72.00;;;;;;5060842;28;20392;-80
2022/11/22 13:10:52;;;;;;;1.88;0.80;;;14.50;72.70;;;;;;5062762;28;20848;-81
2022/11/22 13:13:39;;;;;;;2.75;0.90;;;14.40;72.70;;;;;;5053796;28;20396;-82
2022/11/22 13:16:09;;;;;;;2.22;0.90;;;14.30;73.10;;;;;;5056734;28;20479;-80
2022/11/22 13:19:07;;;;;;;2.45;1.20;;;14.30;73.90;;;;;;5068905;28;20435;-81
2022/11/22 13:22:01;;;;;;;2.08;0.98;;;14.30;73.90;;;;;;4984234;28;20401;-80